sensor_id;sensor_type;location;lat;lon;timestamp;temperature;humidity
3134;DHT22;1577;49.912;10.924;2023-05-10T00:01:11;16.40;77.10
3134;DHT22;1577;49.912;10.924;2023-05-10T00:03:37;16.40;78.00
3134;DHT22;1577;49.912;10.924;2023-05-10T00:06:02;16.30;78.90
3134;DHT22;1577;49.912;10.924;2023-05-10T00:08:28;16.30;78.30
3134;DHT22;1577;49.912;10.924;2023-05-10T00:10:53;16.30;78.50
3134;DHT22;1577;49.912;10.924;2023-05-10T00:13:19;16.30;78.30
3134;DHT22;1577;49.912;10.924;2023-05-10T00:15:45;16.20;79.70
3134;DHT22;1577;49.912;10.924;2023-05-10T00:18:10;16.20;80.90
3134;DHT22;1577;49.912;10.924;2023-05-10T00:20:36;16.20;82.80
3134;DHT22;1577;49.912;10.924;2023-05-10T00:23:02;16.20;83.50
3134;DHT22;1577;49.912;10.924;2023-05-10T00:25:27;16.10;85.50
3134;DHT22;1577;49.912;10.924;2023-05-10T00:27:53;16.00;85.50
3134;DHT22;1577;49.912;10.924;2023-05-10T00:30:20;16.00;84.80
3134;DHT22;1577;49.912;10.924;2023-05-10T00:32:46;15.90;85.10
3134;DHT22;1577;49.912;10.924;2023-05-10T00:35:13;15.80;85.40
3134;DHT22;1577;49.912;10.924;2023-05-10T00:37:38;15.80;87.70
3134;DHT22;1577;49.912;10.924;2023-05-10T00:40:05;15.70;89.20
3134;DHT22;1577;49.912;10.924;2023-05-10T00:42:31;15.60;89.90
3134;DHT22;1577;49.912;10.924;2023-05-10T00:44:57;15.60;91.30
3134;DHT22;1577;49.912;10.924;2023-05-10T00:47:23;15.50;92.60
3134;DHT22;1577;49.912;10.924;2023-05-10T00:49:48;15.40;93.20
3134;DHT22;1577;49.912;10.924;2023-05-10T00:52:15;15.30;93.90
3134;DHT22;1577;49.912;10.924;2023-05-10T00:54:41;15.30;93.90
3134;DHT22;1577;49.912;10.924;2023-05-10T00:57:07;15.30;95.10
3134;DHT22;1577;49.912;10.924;2023-05-10T00:59:32;15.10;95.00
3134;DHT22;1577;49.912;10.924;2023-05-10T01:01:58;15.10;96.60
3134;DHT22;1577;49.912;10.924;2023-05-10T01:04:23;15.00;96.80
3134;DHT22;1577;49.912;10.924;2023-05-10T01:06:51;15.00;97.90
3134;DHT22;1577;49.912;10.924;2023-05-10T01:09:17;15.00;98.60
3134;DHT22;1577;49.912;10.924;2023-05-10T01:11:43;14.90;98.60
3134;DHT22;1577;49.912;10.924;2023-05-10T01:14:09;14.80;99.00
3134;DHT22;1577;49.912;10.924;2023-05-10T01:16:38;14.80;99.90
3134;DHT22;1577;49.912;10.924;2023-05-10T01:19:10;14.70;99.90
3134;DHT22;1577;49.912;10.924;2023-05-10T01:21:38;14.60;99.90
3134;DHT22;1577;49.912;10.924;2023-05-10T01:30:16;14.50;99.90
3134;DHT22;1577;49.912;10.924;2023-05-10T01:35:43;14.30;99.90
3134;DHT22;1577;49.912;10.924;2023-05-10T01:38:32;14.20;99.90
3134;DHT22;1577;49.912;10.924;2023-05-10T01:41:20;14.20;99.90
3134;DHT22;1577;49.912;10.924;2023-05-10T01:44:04;14.20;99.90
3134;DHT22;1577;49.912;10.924;2023-05-10T01:46:36;14.20;99.90
3134;DHT22;1577;49.912;10.924;2023-05-10T01:49:07;14.20;99.90
3134;DHT22;1577;49.912;10.924;2023-05-10T01:51:41;14.20;99.90
3134;DHT22;1577;49.912;10.924;2023-05-10T01:54:10;14.20;99.90
3134;DHT22;1577;49.912;10.924;2023-05-10T01:56:37;14.30;99.90
3134;DHT22;1577;49.912;10.924;2023-05-10T01:59:06;14.30;99.90
3134;DHT22;1577;49.912;10.924;2023-05-10T02:01:34;14.20;99.90
3134;DHT22;1577;49.912;10.924;2023-05-10T02:04:02;14.20;99.90
3134;DHT22;1577;49.912;10.924;2023-05-10T02:06:28;14.20;99.90
3134;DHT22;1577;49.912;10.924;2023-05-10T02:08:54;14.10;99.90
3134;DHT22;1577;49.912;10.924;2023-05-10T02:11:20;14.10;99.90
3134;DHT22;1577;49.912;10.924;2023-05-10T02:13:48;14.00;99.90
3134;DHT22;1577;49.912;10.924;2023-05-10T02:16:16;14.00;99.90
3134;DHT22;1577;49.912;10.924;2023-05-10T02:18:43;14.00;99.90
3134;DHT22;1577;49.912;10.924;2023-05-10T02:21:10;14.00;99.90
3134;DHT22;1577;49.912;10.924;2023-05-10T02:23:36;14.00;99.90
3134;DHT22;1577;49.912;10.924;2023-05-10T02:26:03;14.00;99.90
3134;DHT22;1577;49.912;10.924;2023-05-10T02:28:29;13.90;99.90
3134;DHT22;1577;49.912;10.924;2023-05-10T02:30:56;14.00;99.90
3134;DHT22;1577;49.912;10.924;2023-05-10T02:33:22;13.90;99.90
3134;DHT22;1577;49.912;10.924;2023-05-10T02:35:49;13.90;99.90
3134;DHT22;1577;49.912;10.924;2023-05-10T02:38:15;13.90;99.90
3134;DHT22;1577;49.912;10.924;2023-05-10T02:40:43;13.90;99.90
3134;DHT22;1577;49.912;10.924;2023-05-10T02:43:12;13.90;99.90
3134;DHT22;1577;49.912;10.924;2023-05-10T02:45:39;13.90;99.90
3134;DHT22;1577;49.912;10.924;2023-05-10T02:48:06;13.90;99.90
3134;DHT22;1577;49.912;10.924;2023-05-10T02:50:33;13.90;99.90
3134;DHT22;1577;49.912;10.924;2023-05-10T02:53:08;13.90;99.90
3134;DHT22;1577;49.912;10.924;2023-05-10T02:55:38;13.90;99.90
3134;DHT22;1577;49.912;10.924;2023-05-10T02:58:06;13.90;99.90
3134;DHT22;1577;49.912;10.924;2023-05-10T03:00:31;13.80;99.90
3134;DHT22;1577;49.912;10.924;2023-05-10T03:02:57;13.80;99.90
3134;DHT22;1577;49.912;10.924;2023-05-10T03:05:23;13.80;99.90
3134;DHT22;1577;49.912;10.924;2023-05-10T03:07:49;13.70;99.90
3134;DHT22;1577;49.912;10.924;2023-05-10T03:10:16;13.70;99.90
3134;DHT22;1577;49.912;10.924;2023-05-10T03:18:23;13.80;99.90
3134;DHT22;1577;49.912;10.924;2023-05-10T03:20:50;13.90;99.90
3134;DHT22;1577;49.912;10.924;2023-05-10T03:25:57;13.90;99.90
3134;DHT22;1577;49.912;10.924;2023-05-10T03:28:25;13.90;99.90
3134;DHT22;1577;49.912;10.924;2023-05-10T03:30:53;13.90;99.90
3134;DHT22;1577;49.912;10.924;2023-05-10T03:33:19;14.00;99.90
3134;DHT22;1577;49.912;10.924;2023-05-10T03:35:45;14.00;99.90
3134;DHT22;1577;49.912;10.924;2023-05-10T03:38:14;14.00;99.90
3134;DHT22;1577;49.912;10.924;2023-05-10T03:40:40;14.00;99.90
3134;DHT22;1577;49.912;10.924;2023-05-10T03:43:05;14.00;99.90
3134;DHT22;1577;49.912;10.924;2023-05-10T03:45:31;14.00;99.90
3134;DHT22;1577;49.912;10.924;2023-05-10T03:47:57;14.00;99.90
3134;DHT22;1577;49.912;10.924;2023-05-10T03:50:23;14.00;99.90
3134;DHT22;1577;49.912;10.924;2023-05-10T03:52:49;14.10;99.90
3134;DHT22;1577;49.912;10.924;2023-05-10T03:55:15;14.10;99.90
3134;DHT22;1577;49.912;10.924;2023-05-10T03:57:41;14.20;99.90
3134;DHT22;1577;49.912;10.924;2023-05-10T04:00:07;14.20;99.90
3134;DHT22;1577;49.912;10.924;2023-05-10T04:02:33;14.30;99.90
3134;DHT22;1577;49.912;10.924;2023-05-10T04:04:59;14.30;99.90
3134;DHT22;1577;49.912;10.924;2023-05-10T04:07:24;14.40;99.90
3134;DHT22;1577;49.912;10.924;2023-05-10T04:09:50;14.40;99.90
3134;DHT22;1577;49.912;10.924;2023-05-10T04:12:15;14.50;99.90
3134;DHT22;1577;49.912;10.924;2023-05-10T04:14:41;14.50;99.90
3134;DHT22;1577;49.912;10.924;2023-05-10T04:17:07;14.50;99.90
3134;DHT22;1577;49.912;10.924;2023-05-10T04:19:32;14.60;99.90
3134;DHT22;1577;49.912;10.924;2023-05-10T04:21:58;14.50;99.90
3134;DHT22;1577;49.912;10.924;2023-05-10T04:24:24;14.50;99.90
3134;DHT22;1577;49.912;10.924;2023-05-10T04:26:50;14.60;99.90
3134;DHT22;1577;49.912;10.924;2023-05-10T04:29:16;14.60;99.90
3134;DHT22;1577;49.912;10.924;2023-05-10T04:31:41;14.60;99.90
3134;DHT22;1577;49.912;10.924;2023-05-10T04:34:07;14.60;99.90
3134;DHT22;1577;49.912;10.924;2023-05-10T04:36:32;14.60;99.90
3134;DHT22;1577;49.912;10.924;2023-05-10T04:39:00;14.60;99.90
3134;DHT22;1577;49.912;10.924;2023-05-10T04:41:26;14.60;99.90
3134;DHT22;1577;49.912;10.924;2023-05-10T04:43:51;14.50;99.90
3134;DHT22;1577;49.912;10.924;2023-05-10T04:46:17;14.60;99.90
3134;DHT22;1577;49.912;10.924;2023-05-10T04:48:42;14.50;99.90
3134;DHT22;1577;49.912;10.924;2023-05-10T04:51:08;14.50;99.90
3134;DHT22;1577;49.912;10.924;2023-05-10T04:53:34;14.50;99.90
3134;DHT22;1577;49.912;10.924;2023-05-10T04:55:59;14.50;99.90
3134;DHT22;1577;49.912;10.924;2023-05-10T04:58:25;14.50;99.90
3134;DHT22;1577;49.912;10.924;2023-05-10T05:00:51;14.50;99.90
3134;DHT22;1577;49.912;10.924;2023-05-10T05:03:16;14.50;99.90
3134;DHT22;1577;49.912;10.924;2023-05-10T05:05:43;14.40;99.90
3134;DHT22;1577;49.912;10.924;2023-05-10T05:08:09;14.40;99.90
3134;DHT22;1577;49.912;10.924;2023-05-10T05:10:34;14.30;99.90
3134;DHT22;1577;49.912;10.924;2023-05-10T05:13:00;14.30;99.90
3134;DHT22;1577;49.912;10.924;2023-05-10T05:15:26;14.30;99.90
3134;DHT22;1577;49.912;10.924;2023-05-10T05:17:51;14.30;99.90
3134;DHT22;1577;49.912;10.924;2023-05-10T05:20:17;14.30;99.90
3134;DHT22;1577;49.912;10.924;2023-05-10T05:22:44;14.30;99.90
3134;DHT22;1577;49.912;10.924;2023-05-10T05:25:10;14.40;99.90
3134;DHT22;1577;49.912;10.924;2023-05-10T05:27:36;14.40;99.90
3134;DHT22;1577;49.912;10.924;2023-05-10T05:30:02;14.50;99.90
3134;DHT22;1577;49.912;10.924;2023-05-10T05:32:29;14.60;99.90
3134;DHT22;1577;49.912;10.924;2023-05-10T05:34:55;14.60;99.90
3134;DHT22;1577;49.912;10.924;2023-05-10T05:37:21;14.70;99.90
3134;DHT22;1577;49.912;10.924;2023-05-10T05:39:47;14.80;99.90
3134;DHT22;1577;49.912;10.924;2023-05-10T05:42:13;14.80;99.90
3134;DHT22;1577;49.912;10.924;2023-05-10T05:44:39;14.90;99.90
3134;DHT22;1577;49.912;10.924;2023-05-10T05:47:05;14.90;99.90
3134;DHT22;1577;49.912;10.924;2023-05-10T05:49:32;14.90;99.90
3134;DHT22;1577;49.912;10.924;2023-05-10T05:52:01;15.00;99.90
3134;DHT22;1577;49.912;10.924;2023-05-10T05:54:27;15.10;99.90
3134;DHT22;1577;49.912;10.924;2023-05-10T05:56:57;15.10;99.90
3134;DHT22;1577;49.912;10.924;2023-05-10T05:59:23;15.10;99.90
3134;DHT22;1577;49.912;10.924;2023-05-10T06:01:49;15.00;99.90
3134;DHT22;1577;49.912;10.924;2023-05-10T06:04:15;14.90;99.90
3134;DHT22;1577;49.912;10.924;2023-05-10T06:06:40;14.90;99.90
3134;DHT22;1577;49.912;10.924;2023-05-10T06:09:06;15.00;99.90
3134;DHT22;1577;49.912;10.924;2023-05-10T06:11:31;15.10;99.90
3134;DHT22;1577;49.912;10.924;2023-05-10T06:13:58;15.20;99.90
3134;DHT22;1577;49.912;10.924;2023-05-10T06:16:23;15.30;99.90
3134;DHT22;1577;49.912;10.924;2023-05-10T06:18:49;15.50;99.90
3134;DHT22;1577;49.912;10.924;2023-05-10T06:21:14;15.60;99.90
3134;DHT22;1577;49.912;10.924;2023-05-10T06:23:41;15.70;99.90
3134;DHT22;1577;49.912;10.924;2023-05-10T06:26:07;15.70;99.90
3134;DHT22;1577;49.912;10.924;2023-05-10T06:28:32;15.70;99.90
3134;DHT22;1577;49.912;10.924;2023-05-10T06:30:59;15.80;99.90
3134;DHT22;1577;49.912;10.924;2023-05-10T06:33:24;15.80;99.90
3134;DHT22;1577;49.912;10.924;2023-05-10T06:35:51;15.80;99.90
3134;DHT22;1577;49.912;10.924;2023-05-10T06:38:16;15.70;99.90
3134;DHT22;1577;49.912;10.924;2023-05-10T06:40:42;15.60;99.90
3134;DHT22;1577;49.912;10.924;2023-05-10T06:43:08;15.60;99.90
3134;DHT22;1577;49.912;10.924;2023-05-10T06:45:33;15.60;99.90
3134;DHT22;1577;49.912;10.924;2023-05-10T06:47:59;15.60;99.90
3134;DHT22;1577;49.912;10.924;2023-05-10T06:50:25;15.60;99.90
3134;DHT22;1577;49.912;10.924;2023-05-10T06:52:51;15.60;99.90
3134;DHT22;1577;49.912;10.924;2023-05-10T06:55:16;15.50;99.90
3134;DHT22;1577;49.912;10.924;2023-05-10T06:57:42;15.50;99.90
3134;DHT22;1577;49.912;10.924;2023-05-10T07:00:08;15.60;99.90
3134;DHT22;1577;49.912;10.924;2023-05-10T07:02:35;15.70;99.90
3134;DHT22;1577;49.912;10.924;2023-05-10T07:05:00;15.80;99.90
3134;DHT22;1577;49.912;10.924;2023-05-10T07:07:26;15.90;99.90
3134;DHT22;1577;49.912;10.924;2023-05-10T07:09:52;16.10;99.90
3134;DHT22;1577;49.912;10.924;2023-05-10T07:12:17;16.20;99.90
3134;DHT22;1577;49.912;10.924;2023-05-10T07:14:43;16.20;99.90
3134;DHT22;1577;49.912;10.924;2023-05-10T07:17:09;16.20;99.90
3134;DHT22;1577;49.912;10.924;2023-05-10T07:19:35;16.30;99.90
3134;DHT22;1577;49.912;10.924;2023-05-10T07:22:01;16.30;99.90
3134;DHT22;1577;49.912;10.924;2023-05-10T07:24:26;16.30;99.90
3134;DHT22;1577;49.912;10.924;2023-05-10T07:26:52;16.50;99.90
3134;DHT22;1577;49.912;10.924;2023-05-10T07:29:18;16.60;99.90
3134;DHT22;1577;49.912;10.924;2023-05-10T07:31:43;16.70;99.90
3134;DHT22;1577;49.912;10.924;2023-05-10T07:34:09;16.80;99.90
3134;DHT22;1577;49.912;10.924;2023-05-10T07:36:35;16.90;99.90
3134;DHT22;1577;49.912;10.924;2023-05-10T07:39:00;17.00;99.90
3134;DHT22;1577;49.912;10.924;2023-05-10T07:41:26;17.10;99.90
3134;DHT22;1577;49.912;10.924;2023-05-10T07:43:52;17.30;99.90
3134;DHT22;1577;49.912;10.924;2023-05-10T07:46:18;17.50;99.90
3134;DHT22;1577;49.912;10.924;2023-05-10T07:48:45;17.60;99.90
3134;DHT22;1577;49.912;10.924;2023-05-10T07:51:10;17.90;99.90
3134;DHT22;1577;49.912;10.924;2023-05-10T07:53:37;18.10;99.90
3134;DHT22;1577;49.912;10.924;2023-05-10T07:56:23;18.30;99.90
3134;DHT22;1577;49.912;10.924;2023-05-10T07:58:51;18.40;99.90
3134;DHT22;1577;49.912;10.924;2023-05-10T08:01:17;18.20;99.90
3134;DHT22;1577;49.912;10.924;2023-05-10T08:03:42;18.20;99.90
3134;DHT22;1577;49.912;10.924;2023-05-10T08:06:08;18.10;99.90
3134;DHT22;1577;49.912;10.924;2023-05-10T08:08:33;17.90;99.90
3134;DHT22;1577;49.912;10.924;2023-05-10T08:10:59;17.80;99.90
3134;DHT22;1577;49.912;10.924;2023-05-10T08:13:25;17.70;99.90
3134;DHT22;1577;49.912;10.924;2023-05-10T08:15:50;17.60;99.90
3134;DHT22;1577;49.912;10.924;2023-05-10T08:18:18;17.60;99.90
3134;DHT22;1577;49.912;10.924;2023-05-10T08:20:44;17.60;99.90
3134;DHT22;1577;49.912;10.924;2023-05-10T08:23:09;17.70;99.90
3134;DHT22;1577;49.912;10.924;2023-05-10T08:25:35;17.80;99.90
3134;DHT22;1577;49.912;10.924;2023-05-10T08:28:00;17.90;99.90
3134;DHT22;1577;49.912;10.924;2023-05-10T08:30:26;18.00;99.90
3134;DHT22;1577;49.912;10.924;2023-05-10T08:32:51;18.00;99.90
3134;DHT22;1577;49.912;10.924;2023-05-10T08:35:17;18.00;99.90
3134;DHT22;1577;49.912;10.924;2023-05-10T08:37:43;18.00;99.90
3134;DHT22;1577;49.912;10.924;2023-05-10T08:40:09;18.00;99.90
3134;DHT22;1577;49.912;10.924;2023-05-10T08:42:40;17.90;99.90
3134;DHT22;1577;49.912;10.924;2023-05-10T08:45:08;18.00;99.90
3134;DHT22;1577;49.912;10.924;2023-05-10T08:47:36;18.10;99.90
3134;DHT22;1577;49.912;10.924;2023-05-10T08:50:03;18.30;99.90
3134;DHT22;1577;49.912;10.924;2023-05-10T08:52:30;18.30;99.90
3134;DHT22;1577;49.912;10.924;2023-05-10T08:54:56;18.40;99.90
3134;DHT22;1577;49.912;10.924;2023-05-10T08:57:22;18.50;99.90
3134;DHT22;1577;49.912;10.924;2023-05-10T08:59:48;18.60;99.90
3134;DHT22;1577;49.912;10.924;2023-05-10T09:02:14;18.70;99.90
3134;DHT22;1577;49.912;10.924;2023-05-10T09:04:40;18.70;99.90
3134;DHT22;1577;49.912;10.924;2023-05-10T09:07:06;18.70;99.90
3134;DHT22;1577;49.912;10.924;2023-05-10T09:09:33;18.60;99.90
3134;DHT22;1577;49.912;10.924;2023-05-10T09:11:59;18.50;99.90
3134;DHT22;1577;49.912;10.924;2023-05-10T09:14:25;18.20;99.90
3134;DHT22;1577;49.912;10.924;2023-05-10T09:16:51;18.00;99.90
3134;DHT22;1577;49.912;10.924;2023-05-10T09:19:17;17.90;99.90
3134;DHT22;1577;49.912;10.924;2023-05-10T09:21:43;17.60;99.90
3134;DHT22;1577;49.912;10.924;2023-05-10T09:24:09;17.40;99.90
3134;DHT22;1577;49.912;10.924;2023-05-10T09:26:35;17.20;99.90
3134;DHT22;1577;49.912;10.924;2023-05-10T09:29:03;17.20;99.90
3134;DHT22;1577;49.912;10.924;2023-05-10T09:31:49;17.20;99.90
3134;DHT22;1577;49.912;10.924;2023-05-10T09:34:29;17.30;99.90
3134;DHT22;1577;49.912;10.924;2023-05-10T09:36:59;17.20;99.90
3134;DHT22;1577;49.912;10.924;2023-05-10T09:39:36;17.20;99.90
3134;DHT22;1577;49.912;10.924;2023-05-10T09:42:08;17.20;99.90
3134;DHT22;1577;49.912;10.924;2023-05-10T09:44:35;17.40;99.90
3134;DHT22;1577;49.912;10.924;2023-05-10T09:47:01;17.50;99.90
3134;DHT22;1577;49.912;10.924;2023-05-10T09:49:27;17.70;99.90
3134;DHT22;1577;49.912;10.924;2023-05-10T09:52:13;17.80;99.90
3134;DHT22;1577;49.912;10.924;2023-05-10T09:54:52;18.00;99.90
3134;DHT22;1577;49.912;10.924;2023-05-10T09:57:21;18.20;99.90
3134;DHT22;1577;49.912;10.924;2023-05-10T09:59:47;18.30;99.90
3134;DHT22;1577;49.912;10.924;2023-05-10T10:02:13;18.40;99.90
3134;DHT22;1577;49.912;10.924;2023-05-10T10:04:40;18.60;99.90
3134;DHT22;1577;49.912;10.924;2023-05-10T10:07:06;18.60;99.90
3134;DHT22;1577;49.912;10.924;2023-05-10T10:09:33;18.60;99.90
3134;DHT22;1577;49.912;10.924;2023-05-10T10:12:00;18.60;99.90
3134;DHT22;1577;49.912;10.924;2023-05-10T10:14:27;18.70;99.90
3134;DHT22;1577;49.912;10.924;2023-05-10T10:16:53;18.80;99.90
3134;DHT22;1577;49.912;10.924;2023-05-10T10:19:19;19.00;99.90
3134;DHT22;1577;49.912;10.924;2023-05-10T10:21:46;19.30;99.90
3134;DHT22;1577;49.912;10.924;2023-05-10T10:24:12;19.70;99.90
3134;DHT22;1577;49.912;10.924;2023-05-10T10:26:38;20.20;99.90
3134;DHT22;1577;49.912;10.924;2023-05-10T10:31:47;21.00;99.90
3134;DHT22;1577;49.912;10.924;2023-05-10T10:34:25;21.30;99.90
3134;DHT22;1577;49.912;10.924;2023-05-10T10:36:56;21.30;99.90
3134;DHT22;1577;49.912;10.924;2023-05-10T10:39:22;21.20;99.90
3134;DHT22;1577;49.912;10.924;2023-05-10T10:41:55;20.80;99.90
3134;DHT22;1577;49.912;10.924;2023-05-10T10:47:07;19.80;99.90
3134;DHT22;1577;49.912;10.924;2023-05-10T10:49:52;19.40;99.90
3134;DHT22;1577;49.912;10.924;2023-05-10T10:54:50;19.20;99.90
3134;DHT22;1577;49.912;10.924;2023-05-10T10:57:18;19.20;99.90
3134;DHT22;1577;49.912;10.924;2023-05-10T10:59:44;19.20;99.90
3134;DHT22;1577;49.912;10.924;2023-05-10T11:02:28;19.20;99.90
3134;DHT22;1577;49.912;10.924;2023-05-10T11:04:59;19.20;99.90
3134;DHT22;1577;49.912;10.924;2023-05-10T11:07:24;19.30;99.90
3134;DHT22;1577;49.912;10.924;2023-05-10T11:09:50;19.30;99.90
3134;DHT22;1577;49.912;10.924;2023-05-10T11:12:16;19.20;99.90
3134;DHT22;1577;49.912;10.924;2023-05-10T11:14:42;19.10;99.90
3134;DHT22;1577;49.912;10.924;2023-05-10T11:17:27;18.90;99.90
3134;DHT22;1577;49.912;10.924;2023-05-10T11:20:09;18.90;99.90
3134;DHT22;1577;49.912;10.924;2023-05-10T11:22:51;18.80;99.90
3134;DHT22;1577;49.912;10.924;2023-05-10T11:25:17;18.70;99.90
3134;DHT22;1577;49.912;10.924;2023-05-10T11:27:43;18.70;99.90
3134;DHT22;1577;49.912;10.924;2023-05-10T11:30:12;18.70;99.90
3134;DHT22;1577;49.912;10.924;2023-05-10T11:32:38;18.70;99.90
3134;DHT22;1577;49.912;10.924;2023-05-10T11:35:11;18.70;99.90
3134;DHT22;1577;49.912;10.924;2023-05-10T11:37:38;18.80;99.90
3134;DHT22;1577;49.912;10.924;2023-05-10T11:40:07;18.90;99.90
3134;DHT22;1577;49.912;10.924;2023-05-10T11:42:38;19.00;99.90
3134;DHT22;1577;49.912;10.924;2023-05-10T11:45:05;19.10;99.90
3134;DHT22;1577;49.912;10.924;2023-05-10T11:47:31;19.30;99.90
3134;DHT22;1577;49.912;10.924;2023-05-10T11:49:57;19.60;99.90
3134;DHT22;1577;49.912;10.924;2023-05-10T11:52:23;19.90;99.90
3134;DHT22;1577;49.912;10.924;2023-05-10T11:54:53;20.10;99.90
3134;DHT22;1577;49.912;10.924;2023-05-10T11:57:20;20.20;99.90
3134;DHT22;1577;49.912;10.924;2023-05-10T11:59:53;20.30;99.90
3134;DHT22;1577;49.912;10.924;2023-05-10T12:02:19;20.40;99.90
3134;DHT22;1577;49.912;10.924;2023-05-10T12:04:44;20.40;99.90
3134;DHT22;1577;49.912;10.924;2023-05-10T12:07:10;20.70;99.90
3134;DHT22;1577;49.912;10.924;2023-05-10T12:09:35;20.90;99.90
3134;DHT22;1577;49.912;10.924;2023-05-10T12:12:02;21.00;99.90
3134;DHT22;1577;49.912;10.924;2023-05-10T12:14:28;21.10;99.90
3134;DHT22;1577;49.912;10.924;2023-05-10T12:16:58;21.30;99.90
3134;DHT22;1577;49.912;10.924;2023-05-10T12:19:25;21.30;99.90
3134;DHT22;1577;49.912;10.924;2023-05-10T12:21:50;21.40;99.90
3134;DHT22;1577;49.912;10.924;2023-05-10T12:24:16;21.40;99.90
3134;DHT22;1577;49.912;10.924;2023-05-10T12:26:44;21.60;99.90
3134;DHT22;1577;49.912;10.924;2023-05-10T12:29:16;21.70;99.90
3134;DHT22;1577;49.912;10.924;2023-05-10T12:34:34;21.70;99.90
3134;DHT22;1577;49.912;10.924;2023-05-10T12:37:02;21.50;99.90
3134;DHT22;1577;49.912;10.924;2023-05-10T12:39:42;21.30;99.90
3134;DHT22;1577;49.912;10.924;2023-05-10T12:42:08;21.10;99.90
3134;DHT22;1577;49.912;10.924;2023-05-10T12:44:34;21.00;99.90
3134;DHT22;1577;49.912;10.924;2023-05-10T12:46:59;20.90;99.90
3134;DHT22;1577;49.912;10.924;2023-05-10T12:49:25;20.90;99.90
3134;DHT22;1577;49.912;10.924;2023-05-10T12:51:50;20.80;99.90
3134;DHT22;1577;49.912;10.924;2023-05-10T12:54:16;20.80;99.90
3134;DHT22;1577;49.912;10.924;2023-05-10T12:56:45;20.80;99.90
3134;DHT22;1577;49.912;10.924;2023-05-10T12:59:10;20.80;99.90
3134;DHT22;1577;49.912;10.924;2023-05-10T13:01:36;20.90;99.90
3134;DHT22;1577;49.912;10.924;2023-05-10T13:04:01;21.00;99.90
3134;DHT22;1577;49.912;10.924;2023-05-10T13:06:27;21.00;99.90
3134;DHT22;1577;49.912;10.924;2023-05-10T13:08:53;21.00;99.90
3134;DHT22;1577;49.912;10.924;2023-05-10T13:11:18;21.10;99.90
3134;DHT22;1577;49.912;10.924;2023-05-10T13:13:45;21.00;99.90
3134;DHT22;1577;49.912;10.924;2023-05-10T13:16:10;21.20;99.90
3134;DHT22;1577;49.912;10.924;2023-05-10T13:18:36;21.30;99.90
3134;DHT22;1577;49.912;10.924;2023-05-10T13:21:01;21.40;99.90
3134;DHT22;1577;49.912;10.924;2023-05-10T13:23:29;21.40;99.90
3134;DHT22;1577;49.912;10.924;2023-05-10T13:25:54;21.60;99.90
3134;DHT22;1577;49.912;10.924;2023-05-10T13:28:20;21.60;99.90
3134;DHT22;1577;49.912;10.924;2023-05-10T13:30:46;21.60;99.70
3134;DHT22;1577;49.912;10.924;2023-05-10T13:33:11;21.70;99.80
3134;DHT22;1577;49.912;10.924;2023-05-10T13:35:37;21.80;99.90
3134;DHT22;1577;49.912;10.924;2023-05-10T13:38:03;21.90;99.40
3134;DHT22;1577;49.912;10.924;2023-05-10T13:40:28;22.00;99.80
3134;DHT22;1577;49.912;10.924;2023-05-10T13:42:54;22.00;99.40
3134;DHT22;1577;49.912;10.924;2023-05-10T13:45:19;21.90;99.30
3134;DHT22;1577;49.912;10.924;2023-05-10T13:47:45;21.80;99.80
3134;DHT22;1577;49.912;10.924;2023-05-10T13:50:10;21.80;99.60
3134;DHT22;1577;49.912;10.924;2023-05-10T13:52:36;21.70;99.90
3134;DHT22;1577;49.912;10.924;2023-05-10T13:55:05;21.60;99.90
3134;DHT22;1577;49.912;10.924;2023-05-10T13:57:31;21.40;99.90
3134;DHT22;1577;49.912;10.924;2023-05-10T13:59:56;21.20;99.90
3134;DHT22;1577;49.912;10.924;2023-05-10T14:02:22;20.90;99.90
3134;DHT22;1577;49.912;10.924;2023-05-10T14:04:48;20.60;99.90
3134;DHT22;1577;49.912;10.924;2023-05-10T14:07:13;20.40;99.90
3134;DHT22;1577;49.912;10.924;2023-05-10T14:09:39;20.00;99.90
3134;DHT22;1577;49.912;10.924;2023-05-10T14:12:05;19.70;99.90
3134;DHT22;1577;49.912;10.924;2023-05-10T14:14:30;19.50;99.90
3134;DHT22;1577;49.912;10.924;2023-05-10T14:16:56;19.40;99.90
3134;DHT22;1577;49.912;10.924;2023-05-10T14:19:22;19.20;99.90
3134;DHT22;1577;49.912;10.924;2023-05-10T14:21:47;19.00;99.90
3134;DHT22;1577;49.912;10.924;2023-05-10T14:24:13;18.90;99.90
3134;DHT22;1577;49.912;10.924;2023-05-10T14:26:39;18.90;99.90
3134;DHT22;1577;49.912;10.924;2023-05-10T14:29:04;18.90;99.90
3134;DHT22;1577;49.912;10.924;2023-05-10T14:31:30;18.80;99.90
3134;DHT22;1577;49.912;10.924;2023-05-10T14:33:56;18.90;99.90
3134;DHT22;1577;49.912;10.924;2023-05-10T14:36:22;19.00;99.90
3134;DHT22;1577;49.912;10.924;2023-05-10T14:38:48;18.90;99.90
3134;DHT22;1577;49.912;10.924;2023-05-10T14:41:15;19.00;99.90
3134;DHT22;1577;49.912;10.924;2023-05-10T14:43:42;19.10;99.90
3134;DHT22;1577;49.912;10.924;2023-05-10T14:46:08;19.20;99.90
3134;DHT22;1577;49.912;10.924;2023-05-10T14:48:34;19.20;99.90
3134;DHT22;1577;49.912;10.924;2023-05-10T14:51:00;19.30;99.90
3134;DHT22;1577;49.912;10.924;2023-05-10T14:53:25;19.40;99.90
3134;DHT22;1577;49.912;10.924;2023-05-10T14:55:51;19.40;99.90
3134;DHT22;1577;49.912;10.924;2023-05-10T14:58:17;19.60;99.90
3134;DHT22;1577;49.912;10.924;2023-05-10T15:00:43;19.70;99.90
3134;DHT22;1577;49.912;10.924;2023-05-10T15:03:09;19.60;99.90
3134;DHT22;1577;49.912;10.924;2023-05-10T15:05:34;19.70;99.90
3134;DHT22;1577;49.912;10.924;2023-05-10T15:08:02;19.60;99.90
3134;DHT22;1577;49.912;10.924;2023-05-10T15:10:28;19.60;99.90
3134;DHT22;1577;49.912;10.924;2023-05-10T15:12:53;19.60;99.90
3134;DHT22;1577;49.912;10.924;2023-05-10T15:15:19;19.50;99.90
3134;DHT22;1577;49.912;10.924;2023-05-10T15:17:45;19.30;99.90
3134;DHT22;1577;49.912;10.924;2023-05-10T15:20:11;19.20;99.90
3134;DHT22;1577;49.912;10.924;2023-05-10T15:22:37;19.00;99.90
3134;DHT22;1577;49.912;10.924;2023-05-10T15:25:03;18.80;99.90
3134;DHT22;1577;49.912;10.924;2023-05-10T15:27:29;18.60;99.90
3134;DHT22;1577;49.912;10.924;2023-05-10T15:29:55;18.50;99.90
3134;DHT22;1577;49.912;10.924;2023-05-10T15:32:21;18.30;99.90
3134;DHT22;1577;49.912;10.924;2023-05-10T15:34:46;18.30;99.90
3134;DHT22;1577;49.912;10.924;2023-05-10T15:37:12;18.30;99.90
3134;DHT22;1577;49.912;10.924;2023-05-10T15:39:38;18.30;99.90
3134;DHT22;1577;49.912;10.924;2023-05-10T15:42:03;18.20;99.90
3134;DHT22;1577;49.912;10.924;2023-05-10T15:44:29;18.00;99.90
3134;DHT22;1577;49.912;10.924;2023-05-10T15:46:54;17.90;99.90
3134;DHT22;1577;49.912;10.924;2023-05-10T15:49:21;17.80;99.90
3134;DHT22;1577;49.912;10.924;2023-05-10T15:51:46;17.70;99.90
3134;DHT22;1577;49.912;10.924;2023-05-10T15:54:12;17.70;99.90
3134;DHT22;1577;49.912;10.924;2023-05-10T15:56:37;17.70;99.90
3134;DHT22;1577;49.912;10.924;2023-05-10T15:59:03;17.70;99.90
3134;DHT22;1577;49.912;10.924;2023-05-10T16:01:30;17.60;99.90
3134;DHT22;1577;49.912;10.924;2023-05-10T16:03:56;17.60;99.90
3134;DHT22;1577;49.912;10.924;2023-05-10T16:06:22;17.50;99.90
3134;DHT22;1577;49.912;10.924;2023-05-10T16:08:48;17.50;99.90
3134;DHT22;1577;49.912;10.924;2023-05-10T16:11:13;17.50;99.90